createdAt,value
2022-09-25T00:00:10.027Z,100166.13
2022-09-25T00:02:38.297Z,100154.88
2022-09-25T00:05:09.126Z,100160.34
2022-09-25T00:07:37.136Z,100155.97
2022-09-25T00:10:05.794Z,100152.47
2022-09-25T00:12:33.724Z,100151.41
2022-09-25T00:15:08.600Z,100147.53
2022-09-25T00:17:36.786Z,100148.91
2022-09-25T00:20:04.296Z,100151.09
2022-09-25T00:22:33.587Z,100148.94
2022-09-25T00:25:08.661Z,100148.34
2022-09-25T00:27:40.327Z,100144.25
2022-09-25T00:30:16.424Z,100143.75
2022-09-25T00:32:45.619Z,100140.38
2022-09-25T00:35:17.594Z,100144.03
2022-09-25T00:37:48.396Z,100146.81
2022-09-25T00:40:17.433Z,100134.44
2022-09-25T00:42:45.653Z,100135.53
2022-09-25T00:45:25.499Z,100139.19
2022-09-25T00:48:00.912Z,100130.19
2022-09-25T00:50:42.861Z,100130.44
2022-09-25T00:53:15.270Z,100128.75
2022-09-25T00:55:46.325Z,100135.56
2022-09-25T00:58:31.552Z,100130.00
2022-09-25T01:01:02.463Z,100135.00
2022-09-25T01:03:32.282Z,100123.09
2022-09-25T01:06:03.021Z,100127.12
2022-09-25T01:08:34.321Z,100134.63
2022-09-25T01:11:02.774Z,100128.69
2022-09-25T01:13:30.992Z,100131.50
2022-09-25T01:16:04.048Z,100137.19
2022-09-25T01:18:52.161Z,100132.94
2022-09-25T01:21:26.683Z,100120.34
2022-09-25T01:24:11.982Z,100119.63
2022-09-25T01:27:00.640Z,100112.91
2022-09-25T01:29:38.378Z,100112.56
2022-09-25T01:32:14.114Z,100104.69
2022-09-25T01:34:56.086Z,100099.09
2022-09-25T01:37:30.970Z,100106.97
2022-09-25T01:40:08.804Z,100105.53
2022-09-25T01:42:43.121Z,100107.50
2022-09-25T01:45:20.125Z,100119.00
2022-09-25T01:47:51.585Z,100116.22
2022-09-25T01:50:26.107Z,100122.41
2022-09-25T01:52:58.857Z,100126.16
2022-09-25T01:55:31.452Z,100130.53
2022-09-25T01:58:07.216Z,100128.56
2022-09-25T02:00:43.002Z,100132.09
2022-09-25T02:03:22.497Z,100134.50
2022-09-25T02:06:02.543Z,100130.72
2022-09-25T02:08:38.071Z,100133.66
2022-09-25T02:11:07.499Z,100130.62
2022-09-25T02:13:41.904Z,100135.59
2022-09-25T02:16:14.332Z,100132.66
2022-09-25T02:19:00.571Z,100131.72
2022-09-25T02:21:45.409Z,100133.28
2022-09-25T02:24:21.744Z,100130.22
2022-09-25T02:26:51.245Z,100136.28
2022-09-25T02:29:19.794Z,100128.87
2022-09-25T02:31:53.640Z,100125.13
2022-09-25T02:34:28.176Z,100128.50
2022-09-25T02:37:01.532Z,100122.94
2022-09-25T02:39:37.800Z,100127.88
2022-09-25T02:42:27.615Z,100124.09
2022-09-25T02:45:13.172Z,100128.09
2022-09-25T02:47:56.131Z,100129.91
2022-09-25T02:50:28.044Z,100126.28
2022-09-25T02:53:15.604Z,100127.25
2022-09-25T02:55:56.078Z,100122.63
2022-09-25T02:58:30.705Z,100128.94
2022-09-25T03:01:02.629Z,100126.28
2022-09-25T03:03:34.115Z,100125.44
2022-09-25T03:06:04.443Z,100127.00
2022-09-25T03:08:41.633Z,100121.91
2022-09-25T03:11:16.142Z,100125.56
2022-09-25T03:14:01.345Z,100131.87
2022-09-25T03:16:35.626Z,100129.91
2022-09-25T03:19:05.075Z,100120.66
2022-09-25T03:21:33.774Z,100123.09
2022-09-25T03:24:02.596Z,100120.16
2022-09-25T03:26:31.357Z,100112.88
2022-09-25T03:29:02.424Z,100122.31
2022-09-25T03:31:31.576Z,100122.06
2022-09-25T03:33:59.795Z,100121.09
2022-09-25T03:36:30.679Z,100117.44
2022-09-25T03:38:59.869Z,100121.81
2022-09-25T03:41:30.821Z,100110.00
2022-09-25T03:43:59.974Z,100115.97
2022-09-25T03:46:31.388Z,100121.31
2022-09-25T03:49:00.111Z,100130.31
2022-09-25T03:51:31.263Z,100131.25
2022-09-25T03:53:59.644Z,100125.06
2022-09-25T03:56:29.679Z,100111.47
2022-09-25T03:58:58.709Z,100122.16
2022-09-25T04:01:27.962Z,100123.00
2022-09-25T04:03:56.657Z,100116.19
2022-09-25T04:06:26.608Z,100110.75
2022-09-25T04:08:56.210Z,100118.63
2022-09-25T04:11:25.736Z,100119.09
2022-09-25T04:13:54.082Z,100125.03
2022-09-25T04:16:22.459Z,100117.12
2022-09-25T04:18:51.200Z,100116.88
2022-09-25T04:21:19.306Z,100118.56
2022-09-25T04:24:19.869Z,100110.28
2022-09-25T04:26:53.805Z,100114.38
2022-09-25T04:29:24.207Z,100120.47
2022-09-25T04:32:06.376Z,100117.66
2022-09-25T04:34:34.987Z,100116.56
2022-09-25T04:37:03.702Z,100117.25
2022-09-25T04:39:32.975Z,100125.13
2022-09-25T04:42:06.178Z,100122.22
2022-09-25T04:44:34.465Z,100121.25
2022-09-25T04:47:04.284Z,100126.22
2022-09-25T04:49:32.117Z,100119.03
2022-09-25T04:52:00.534Z,100121.34
2022-09-25T04:54:31.496Z,100124.44
2022-09-25T04:57:02.719Z,100131.38
2022-09-25T04:59:30.912Z,100124.91
2022-09-25T05:01:58.896Z,100130.12
2022-09-25T05:04:26.952Z,100129.28
2022-09-25T05:06:55.400Z,100128.44
2022-09-25T05:09:23.297Z,100125.50
2022-09-25T05:11:53.541Z,100130.47
2022-09-25T05:14:22.947Z,100128.50
2022-09-25T05:16:55.386Z,100130.19
2022-09-25T05:19:38.846Z,100131.59
2022-09-25T05:22:07.159Z,100128.69
2022-09-25T05:24:35.515Z,100128.41
2022-09-25T05:27:04.000Z,100125.72
2022-09-25T05:29:39.189Z,100127.41
2022-09-25T05:32:07.878Z,100119.53
2022-09-25T05:34:38.253Z,100126.56
2022-09-25T05:37:06.435Z,100120.25
2022-09-25T05:39:37.077Z,100120.81
2022-09-25T05:42:07.984Z,100121.28
2022-09-25T05:44:42.534Z,100122.69
2022-09-25T05:47:11.876Z,100128.87
2022-09-25T05:49:41.046Z,100124.13
2022-09-25T05:52:15.483Z,100128.91
2022-09-25T05:54:44.264Z,100130.22
2022-09-25T05:57:12.259Z,100125.44
2022-09-25T05:59:41.613Z,100127.00
2022-09-25T06:02:12.207Z,100127.44
2022-09-25T06:04:40.417Z,100120.81
2022-09-25T06:07:09.983Z,100123.94
2022-09-25T06:09:37.902Z,100123.53
2022-09-25T06:12:06.599Z,100116.94
2022-09-25T06:14:35.324Z,100114.84
2022-09-25T06:17:05.043Z,100117.97
2022-09-25T06:19:33.177Z,100113.88
2022-09-25T06:22:01.063Z,100120.38
2022-09-25T06:24:28.971Z,100127.88
2022-09-25T06:26:57.206Z,100125.59
2022-09-25T06:29:25.145Z,100128.00
2022-09-25T06:31:53.532Z,100126.75
2022-09-25T06:34:23.421Z,100129.13
2022-09-25T06:36:56.440Z,100129.84
2022-09-25T06:39:25.103Z,100130.28
2022-09-25T06:41:58.194Z,100127.44
2022-09-25T06:44:32.479Z,100135.03
2022-09-25T06:47:01.600Z,100127.44
2022-09-25T06:49:32.653Z,100128.84
2022-09-25T06:52:06.604Z,100130.28
2022-09-25T06:54:46.220Z,100136.03
2022-09-25T06:57:22.708Z,100131.25
2022-09-25T06:59:53.379Z,100134.50
2022-09-25T07:02:47.192Z,100133.94
2022-09-25T07:05:23.978Z,100139.84
2022-09-25T07:07:52.153Z,100131.97
2022-09-25T07:10:23.185Z,100135.87
2022-09-25T07:12:54.415Z,100144.22
2022-09-25T07:15:23.579Z,100138.56
2022-09-25T07:17:56.364Z,100144.19
2022-09-25T07:20:27.985Z,100137.41
2022-09-25T07:23:04.157Z,100150.22
2022-09-25T07:25:32.881Z,100147.41
2022-09-25T07:28:01.071Z,100147.12
2022-09-25T07:30:29.995Z,100144.53
2022-09-25T07:33:00.218Z,100150.19
2022-09-25T07:35:29.595Z,100147.75
2022-09-25T07:38:00.979Z,100147.88
2022-09-25T07:40:32.109Z,100143.19
2022-09-25T07:43:02.209Z,100145.56
2022-09-25T07:45:30.665Z,100139.91
2022-09-25T07:48:00.666Z,100133.81
2022-09-25T07:50:30.845Z,100147.75
2022-09-25T07:52:59.345Z,100143.84
2022-09-25T07:55:28.465Z,100139.84
2022-09-25T07:57:58.081Z,100141.09
2022-09-25T08:00:26.458Z,100143.31
2022-09-25T08:02:58.855Z,100141.47
2022-09-25T08:05:28.813Z,100142.03
2022-09-25T08:08:00.619Z,100140.19
2022-09-25T08:10:28.625Z,100134.81
2022-09-25T08:12:56.971Z,100137.72
2022-09-25T08:15:27.480Z,100145.03
2022-09-25T08:17:55.932Z,100139.13
2022-09-25T08:20:26.174Z,100139.66
2022-09-25T08:23:01.839Z,100137.22
2022-09-25T08:25:36.611Z,100141.69
2022-09-25T08:28:04.888Z,100129.47
2022-09-25T08:30:39.656Z,100139.38
2022-09-25T08:33:16.402Z,100134.09
2022-09-25T08:36:03.591Z,100134.50
2022-09-25T08:38:36.020Z,100137.53
2022-09-25T08:41:18.898Z,100136.53
2022-09-25T08:43:56.276Z,100123.19
2022-09-25T08:46:58.225Z,100129.03
2022-09-25T08:49:35.409Z,100129.25
2022-09-25T08:52:08.420Z,100121.78
2022-09-25T08:54:44.949Z,100118.94
2022-09-25T08:57:24.921Z,100125.22
2022-09-25T09:00:02.361Z,100121.00
2022-09-25T09:02:39.558Z,100118.03
2022-09-25T09:05:20.571Z,100115.50
2022-09-25T09:07:54.494Z,100126.34
2022-09-25T09:10:31.803Z,100123.66
2022-09-25T09:13:11.613Z,100118.37
2022-09-25T09:15:43.867Z,100122.34
2022-09-25T09:18:22.078Z,100120.53
2022-09-25T09:20:53.281Z,100125.91
2022-09-25T09:23:23.580Z,100125.97
2022-09-25T09:26:04.339Z,100123.31
2022-09-25T09:29:02.927Z,100132.72
2022-09-25T09:31:38.768Z,100133.31
2022-09-25T09:34:52.947Z,100126.53
2022-09-25T09:37:31.687Z,100127.44
2022-09-25T09:40:15.517Z,100118.03
2022-09-25T09:42:54.868Z,100119.09
2022-09-25T09:45:33.088Z,100121.78
2022-09-25T09:48:14.405Z,100125.00
2022-09-25T09:50:52.408Z,100117.78
2022-09-25T09:53:32.418Z,100118.09
2022-09-25T09:56:09.038Z,100116.75
2022-09-25T09:58:47.174Z,100115.41
2022-09-25T10:01:39.830Z,100101.41
2022-09-25T10:04:08.034Z,100098.50
2022-09-25T10:06:39.786Z,100105.50
2022-09-25T10:09:10.228Z,100101.53
2022-09-25T10:11:40.958Z,100100.03
2022-09-25T10:14:17.517Z,100096.75
2022-09-25T10:16:45.809Z,100097.97
2022-09-25T10:19:20.113Z,100092.19
2022-09-25T10:21:52.483Z,100088.00
2022-09-25T10:24:51.306Z,100091.63
2022-09-25T10:27:23.742Z,100092.56
2022-09-25T10:30:20.432Z,100087.47
2022-09-25T10:33:01.321Z,100092.81
2022-09-25T10:35:31.086Z,100086.28
2022-09-25T10:38:01.926Z,100093.31
2022-09-25T10:40:33.377Z,100092.47
2022-09-25T10:43:08.023Z,100091.87
2022-09-25T10:45:40.722Z,100090.59
2022-09-25T10:48:54.744Z,100081.16
2022-09-25T10:51:24.323Z,100089.38
2022-09-25T10:54:12.429Z,100085.81
2022-09-25T10:56:41.121Z,100085.66
2022-09-25T10:59:18.109Z,100085.84
2022-09-25T11:01:51.645Z,100087.06
2022-09-25T11:04:24.731Z,100075.16
2022-09-25T11:06:58.098Z,100077.56
2022-09-25T11:09:28.267Z,100075.56
2022-09-25T11:12:08.186Z,100065.13
2022-09-25T11:14:37.559Z,100058.97
2022-09-25T11:17:08.429Z,100063.66
2022-09-25T11:19:37.929Z,100062.28
2022-09-25T11:22:17.891Z,100047.94
2022-09-25T11:25:00.158Z,100049.78
2022-09-25T11:27:37.657Z,100050.97
2022-09-25T11:30:10.333Z,100044.41
2022-09-25T11:32:53.763Z,100056.44
2022-09-25T11:35:33.095Z,100042.53
2022-09-25T11:38:11.407Z,100044.91
2022-09-25T11:41:03.236Z,100051.19
2022-09-25T11:43:52.049Z,100046.06
2022-09-25T11:46:27.770Z,100039.88
2022-09-25T11:49:09.974Z,100040.81
2022-09-25T11:52:03.589Z,100036.44
2022-09-25T11:54:42.101Z,100031.97
2022-09-25T11:57:15.771Z,100042.03
2022-09-25T12:00:00.357Z,100032.00
2022-09-25T12:02:50.448Z,100038.62
2022-09-25T12:05:41.155Z,100027.94
2022-09-25T12:08:35.105Z,100026.03
2022-09-25T12:11:16.679Z,100024.28
2022-09-25T12:13:54.414Z,100014.47
2022-09-25T12:16:32.985Z,100018.72
2022-09-25T12:19:27.049Z,100011.81
2022-09-25T12:22:02.667Z,100004.91
2022-09-25T12:24:40.474Z,100002.53
2022-09-25T12:27:18.596Z,99992.91
2022-09-25T12:30:06.692Z,100005.44
2022-09-25T12:32:50.628Z,100005.94
2022-09-25T12:35:34.859Z,99997.81
2022-09-25T12:38:11.862Z,99993.94
2022-09-25T12:40:45.615Z,99999.66
2022-09-25T12:43:21.390Z,99994.56
2022-09-25T12:45:53.801Z,99989.59
2022-09-25T12:48:28.475Z,99994.81
2022-09-25T12:51:05.669Z,99989.00
2022-09-25T12:53:39.935Z,99984.69
2022-09-25T12:56:17.494Z,99995.38
2022-09-25T12:59:00.303Z,99987.56
2022-09-25T13:01:36.418Z,99985.87
2022-09-25T13:04:19.359Z,99982.47
2022-09-25T13:06:53.914Z,99984.16
2022-09-25T13:09:32.241Z,99980.38
2022-09-25T13:12:04.339Z,99974.50
2022-09-25T13:14:36.453Z,99974.62
2022-09-25T13:17:08.010Z,99975.03
2022-09-25T13:19:39.070Z,99970.59
2022-09-25T13:22:10.192Z,99972.44
2022-09-25T13:24:45.243Z,99970.91
2022-09-25T13:27:24.290Z,99975.00
2022-09-25T13:29:59.316Z,99969.44
2022-09-25T13:32:31.793Z,99979.25
2022-09-25T13:35:04.499Z,99971.84
2022-09-25T13:37:34.300Z,99970.03
2022-09-25T13:40:33.983Z,99968.75
2022-09-25T13:43:17.632Z,99967.97
2022-09-25T13:45:45.825Z,99965.97
2022-09-25T13:48:33.392Z,99961.47
2022-09-25T13:51:34.828Z,99956.75
2022-09-25T13:54:05.091Z,99954.22
2022-09-25T13:56:53.323Z,99957.69
2022-09-25T13:59:24.596Z,99960.72
2022-09-25T14:01:59.881Z,99949.88
2022-09-25T14:04:36.867Z,99948.22
2022-09-25T14:07:14.809Z,99940.37
2022-09-25T14:09:50.377Z,99940.03
2022-09-25T14:15:28.014Z,99945.78
2022-09-25T14:17:59.359Z,99939.87
2022-09-25T14:20:38.281Z,99937.50
2022-09-25T14:23:14.959Z,99937.56
2022-09-25T14:25:46.930Z,99932.37
2022-09-25T14:28:22.689Z,99933.53
2022-09-25T14:31:07.310Z,99927.91
2022-09-25T14:33:57.731Z,99929.00
2022-09-25T14:36:38.034Z,99931.38
2022-09-25T14:39:33.617Z,99923.75
2022-09-25T14:42:27.284Z,99926.38
2022-09-25T14:45:25.741Z,99917.41
2022-09-25T14:47:59.695Z,99923.09
2022-09-25T14:50:32.653Z,99923.78
2022-09-25T14:53:04.741Z,99924.31
2022-09-25T14:55:37.864Z,99917.69
2022-09-25T14:58:13.488Z,99919.75
2022-09-25T15:00:48.378Z,99917.78
2022-09-25T15:03:20.968Z,99914.88
2022-09-25T15:05:50.552Z,99919.75
2022-09-25T15:08:26.703Z,99919.66
2022-09-25T15:11:10.687Z,99922.38
2022-09-25T15:13:39.772Z,99930.09
2022-09-25T15:16:33.796Z,99923.50
2022-09-25T15:19:04.192Z,99927.06
2022-09-25T15:21:34.817Z,99927.78
2022-09-25T15:24:08.039Z,99919.06
2022-09-25T15:26:41.732Z,99925.87
2022-09-25T15:29:17.645Z,99921.19
2022-09-25T15:31:50.860Z,99933.13
2022-09-25T15:34:24.856Z,99933.25
2022-09-25T15:36:53.409Z,99923.69
2022-09-25T15:39:25.346Z,99920.50
2022-09-25T15:41:58.852Z,99922.03
2022-09-25T15:44:27.896Z,99927.47
2022-09-25T15:47:00.677Z,99934.19
2022-09-25T15:49:34.582Z,99931.00
2022-09-25T15:52:06.065Z,99929.81
2022-09-25T15:54:37.792Z,99928.31
2022-09-25T15:57:11.273Z,99929.91
2022-09-25T16:00:04.087Z,99930.75
2022-09-25T16:02:54.607Z,99931.78
2022-09-25T16:05:29.635Z,99932.81
2022-09-25T16:08:29.221Z,99929.28
2022-09-25T16:11:17.608Z,99925.94
2022-09-25T16:13:48.636Z,99913.84
2022-09-25T16:16:24.812Z,99920.59
2022-09-25T16:18:55.943Z,99924.81
2022-09-25T16:21:28.849Z,99934.63
2022-09-25T16:24:00.136Z,99933.78
2022-09-25T16:26:36.754Z,99933.78
2022-09-25T16:29:14.434Z,99926.34
2022-09-25T16:31:44.959Z,99922.66
2022-09-25T16:34:21.918Z,99926.69
2022-09-25T16:36:51.502Z,99931.75
2022-09-25T16:39:26.727Z,99930.38
2022-09-25T16:41:55.639Z,99925.50
2022-09-25T16:44:37.505Z,99929.69
2022-09-25T16:47:14.321Z,99930.69
2022-09-25T16:49:44.858Z,99929.00
2022-09-25T16:52:21.386Z,99937.09
2022-09-25T16:54:53.603Z,99927.00
2022-09-25T16:57:23.298Z,99931.38
2022-09-25T16:59:52.222Z,99933.06
2022-09-25T17:02:35.929Z,99928.00
2022-09-25T17:05:08.990Z,99935.72
2022-09-25T17:07:36.972Z,99933.91
2022-09-25T17:10:05.706Z,99934.72
2022-09-25T17:12:34.476Z,99938.53
2022-09-25T17:15:02.522Z,99929.62
2022-09-25T17:17:31.156Z,99931.16
2022-09-25T17:19:59.185Z,99925.59
2022-09-25T17:22:33.637Z,99924.22
2022-09-25T17:25:03.638Z,99916.31
2022-09-25T17:27:31.810Z,99914.81
2022-09-25T17:29:59.902Z,99916.31
2022-09-25T17:32:29.368Z,99915.47
2022-09-25T17:34:58.297Z,99916.59
2022-09-25T17:37:26.232Z,99918.78
2022-09-25T17:39:56.105Z,99919.13
2022-09-25T17:42:26.072Z,99917.09
2022-09-25T17:44:55.021Z,99921.97
2022-09-25T17:47:23.798Z,99917.25
2022-09-25T17:49:51.703Z,99916.69
2022-09-25T17:52:21.590Z,99921.41
2022-09-25T17:54:49.500Z,99918.03
2022-09-25T17:57:19.107Z,99919.84
2022-09-25T17:59:47.251Z,99924.06
2022-09-25T18:02:17.483Z,99923.72
2022-09-25T18:04:45.804Z,99921.53
2022-09-25T18:07:14.328Z,99920.00
2022-09-25T18:09:45.381Z,99918.00
2022-09-25T18:12:13.515Z,99928.03
2022-09-25T18:14:46.295Z,99931.06
2022-09-25T18:17:16.171Z,99931.56
2022-09-25T18:20:01.721Z,99934.09
2022-09-25T18:22:29.828Z,99930.00
2022-09-25T18:24:57.864Z,99935.94
2022-09-25T18:27:27.835Z,99937.69
2022-09-25T18:29:58.268Z,99941.22
2022-09-25T18:32:42.882Z,99935.62
2022-09-25T18:35:15.714Z,99934.63
2022-09-25T18:37:54.627Z,99939.28
2022-09-25T18:40:26.156Z,99941.28
2022-09-25T18:42:54.574Z,99940.09
2022-09-25T18:45:27.187Z,99939.75
2022-09-25T18:47:55.241Z,99945.34
2022-09-25T18:50:23.592Z,99945.66
2022-09-25T18:52:52.692Z,99948.50
2022-09-25T18:55:20.895Z,99942.97
2022-09-25T18:57:54.165Z,99944.66
2022-09-25T19:00:25.660Z,99943.62
2022-09-25T19:02:54.772Z,99937.00
2022-09-25T19:05:26.254Z,99934.50
2022-09-25T19:07:54.732Z,99929.06
2022-09-25T19:10:24.243Z,99928.78
2022-09-25T19:12:52.578Z,99932.47
2022-09-25T19:15:21.144Z,99930.81
2022-09-25T19:17:50.462Z,99930.91
2022-09-25T19:20:20.583Z,99936.28
2022-09-25T19:22:49.644Z,99936.59
2022-09-25T19:25:22.740Z,99938.81
2022-09-25T19:27:51.351Z,99935.09
2022-09-25T19:30:19.368Z,99935.94
2022-09-25T19:32:47.336Z,99935.44
2022-09-25T19:35:16.922Z,99928.69
2022-09-25T19:37:44.934Z,99930.38
2022-09-25T19:40:27.245Z,99930.06
2022-09-25T19:42:57.862Z,99931.75
2022-09-25T19:45:26.315Z,99937.97
2022-09-25T19:47:54.135Z,99934.25
2022-09-25T19:50:25.637Z,99931.00
2022-09-25T19:52:54.690Z,99927.84
2022-09-25T19:55:25.579Z,99934.06
2022-09-25T19:57:53.852Z,99938.06
2022-09-25T20:00:21.858Z,99919.09
2022-09-25T20:02:51.677Z,99919.00
2022-09-25T20:05:19.720Z,99921.88
2022-09-25T20:07:55.181Z,99925.44
2022-09-25T20:10:23.502Z,99918.81
2022-09-25T20:12:51.644Z,99922.03
2022-09-25T20:15:20.259Z,99916.66
2022-09-25T20:17:48.722Z,99912.44
2022-09-25T20:20:22.548Z,99919.16
2022-09-25T20:22:52.499Z,99919.06
2022-09-25T20:25:20.904Z,99921.09
2022-09-25T20:27:49.116Z,99913.31
2022-09-25T20:30:20.665Z,99912.31
2022-09-25T20:32:48.656Z,99904.41
2022-09-25T20:35:17.013Z,99918.84
2022-09-25T20:37:46.170Z,99911.13
2022-09-25T20:40:16.027Z,99905.75
2022-09-25T20:42:44.130Z,99909.25
2022-09-25T20:45:19.172Z,99911.13
2022-09-25T20:47:47.345Z,99903.06
2022-09-25T20:50:17.075Z,99906.16
2022-09-25T20:52:45.335Z,99905.91
2022-09-25T20:55:16.080Z,99911.28
2022-09-25T20:58:08.419Z,99906.16
2022-09-25T21:00:49.051Z,99909.59
2022-09-25T21:03:17.240Z,99905.41
2022-09-25T21:05:46.582Z,99910.16
2022-09-25T21:08:14.516Z,99914.38
2022-09-25T21:10:45.183Z,99906.78
2022-09-25T21:13:16.127Z,99901.44
2022-09-25T21:15:44.282Z,99909.63
2022-09-25T21:18:15.043Z,99905.09
2022-09-25T21:20:43.054Z,99905.41
2022-09-25T21:23:12.055Z,99901.03
2022-09-25T21:25:41.201Z,99899.06
2022-09-25T21:28:10.755Z,99893.97
2022-09-25T21:30:39.427Z,99890.25
2022-09-25T21:33:07.455Z,99890.25
2022-09-25T21:35:35.338Z,99887.69
2022-09-25T21:38:06.527Z,99889.94
2022-09-25T21:40:42.822Z,99887.94
2022-09-25T21:43:12.511Z,99880.56
2022-09-25T21:45:40.755Z,99883.25
2022-09-25T21:48:09.019Z,99879.19
2022-09-25T21:50:52.463Z,99880.03
2022-09-25T21:53:20.777Z,99881.56
2022-09-25T21:55:49.024Z,99878.03
2022-09-25T21:58:18.256Z,99884.25
2022-09-25T22:00:46.177Z,99876.97
2022-09-25T22:03:15.416Z,99883.47
2022-09-25T22:05:43.383Z,99880.97
2022-09-25T22:08:11.370Z,99879.28
2022-09-25T22:10:39.536Z,99882.31
2022-09-25T22:13:07.628Z,99877.44
2022-09-25T22:15:36.892Z,99876.97
2022-09-25T22:18:05.080Z,99878.81
2022-09-25T22:20:33.035Z,99875.75
2022-09-25T22:23:13.516Z,99881.63
2022-09-25T22:25:53.663Z,99879.19
2022-09-25T22:28:22.633Z,99882.19
2022-09-25T22:30:52.150Z,99877.94
2022-09-25T22:33:20.247Z,99877.44
2022-09-25T22:35:48.552Z,99877.59
2022-09-25T22:38:16.936Z,99871.53
2022-09-25T22:40:45.143Z,99867.16
2022-09-25T22:43:13.086Z,99869.84
2022-09-25T22:45:48.744Z,99865.94
2022-09-25T22:48:18.059Z,99864.09
2022-09-25T22:50:54.229Z,99862.41
2022-09-25T22:53:26.587Z,99869.59
2022-09-25T22:55:54.896Z,99866.09
2022-09-25T22:58:23.455Z,99867.75
2022-09-25T23:00:53.828Z,99863.94
2022-09-25T23:03:24.850Z,99859.72
2022-09-25T23:05:53.028Z,99863.09
2022-09-25T23:08:22.428Z,99856.87
2022-09-25T23:11:06.638Z,99858.41
2022-09-25T23:13:36.871Z,99857.72
2022-09-25T23:16:07.243Z,99851.81
2022-09-25T23:18:38.165Z,99843.63
2022-09-25T23:21:06.446Z,99847.31
2022-09-25T23:23:34.410Z,99834.06
2022-09-25T23:26:06.278Z,99842.09
2022-09-25T23:28:35.894Z,99840.94
2022-09-25T23:31:09.379Z,99844.47
2022-09-25T23:33:39.704Z,99838.41
2022-09-25T23:36:09.843Z,99842.09
2022-09-25T23:38:38.153Z,99841.09
2022-09-25T23:41:14.438Z,99837.06
2022-09-25T23:43:43.208Z,99843.94
2022-09-25T23:46:11.333Z,99835.22
2022-09-25T23:48:40.942Z,99842.41
2022-09-25T23:51:09.997Z,99838.84
2022-09-25T23:53:38.016Z,99835.81
2022-09-25T23:56:08.011Z,99834.28
2022-09-25T23:58:36.677Z,99832.44
